Anne Sibum — C4YC2 — position and weather

sailwx.info

Track history (hours):
 
Tides and Currents Weather Stations Pressure Air Temp Water Temp Dewpoint Dewpoint Depression Visibility Wind Speed Wind Dir Waves Ship Positions

Anne Sibum

Last reported at 2016-May-04 18:33 UTC. Time now 2016-May-04 19:18 UTC.
Position N 53°21' E 007°12'.

Length 151 m; draft 5.8 m.

Type: Cargo ship. MMSI: 209322000.

Date/timePositionNaut miles runAvg speedWind from/ knotsBaromVisibWave heightAir tempDewpointWater temp
2016-May-04 18:33N 53°21' E 007°12'0 0.0
2016-May-04 17:33N 53°21' E 007°12'0 0.0
2016-May-04 16:33N 53°21' E 007°12'0 0.2
2016-May-04 15:32N 53°21' E 007°12'1 1.3
2016-May-04 14:33N 53°20' E 007°10'3 3.2
2016-May-04 13:33N 53°20' E 007°05'10 9.6
2016-May-04 12:33N 53°27' E 006°54'1211.9
2016-May-04 11:33N 53°34' E 006°39'1212.1
2016-May-04 10:33N 53°38' E 006°19'9 9.1
2016-May-04 09:33N 53°39' E 006°04'6 6.4
2016-May-04 08:33N 53°38' E 005°53'7 7.2
2016-May-04 07:32N 53°36' E 005°41'1010.2
2016-May-04 06:34N 53°33' E 005°25'1110.4
2016-May-04 05:32N 53°29' E 005°08'23 9.7
2016-May-04 03:09N 53°16' E 004°37'610.7
2016-May-04 02:33N 53°10' E 004°32'1111.3
2016-May-04 01:33N 53°00' E 004°23'1111.2
2016-May-04 00:33N 52°50' E 004°14'1111.2
2016-May-03 23:33N 52°41' E 004°04'1111.1
2016-May-03 22:33N 52°31' E 003°55'1212.2
2016-May-03 21:34N 52°19' E 003°52'1212.3
2016-May-03 20:34N 52°07' E 003°55'10 9.8
2016-May-03 19:33N 51°59' E 004°04'2 1.7
2016-May-03 18:33N 51°59' E 004°01'0 0.0
2016-May-03 17:30N 51°59' E 004°01'0 0.2
2016-May-03 16:33N 51°59' E 004°02'2 1.8
2016-May-03 15:33N 51°57' E 004°03'0 0.0
2016-May-03 14:31N 51°57' E 004°03'0 0.0
2016-May-03 13:28N 51°57' E 004°03'0 0.0
2016-May-03 12:33N 51°57' E 004°03'0 0.0
2016-May-03 11:30N 51°57' E 004°03'1 0.9
2016-May-03 10:34N 51°57' E 004°04'1 0.9
2016-May-03 09:33N 51°58' E 004°03'0 0.0
2016-May-03 08:33N 51°58' E 004°03'0 0.0
2016-May-03 07:32N 51°58' E 004°03'0 0.0
2016-May-03 06:32N 51°58' E 004°03'0 0.0
2016-May-03 05:31N 51°58' E 004°03'0 0.0
2016-May-03 04:31N 51°58' E 004°03'0 0.0
2016-May-03 03:31N 51°58' E 004°03'0 0.0
2016-May-03 02:33N 51°58' E 004°03'0 0.0
2016-May-03 01:33N 51°58' E 004°03'0 0.0
2016-May-03 00:32N 51°58' E 004°03'0 0.0
2016-May-02 23:32N 51°58' E 004°03'0 0.0
2016-May-02 22:31N 51°58' E 004°03'0 0.0
2016-May-02 21:31N 51°58' E 004°03'0 0.0
2016-May-02 20:31N 51°58' E 004°03'0 0.4
2016-May-02 19:33N 51°57' E 004°03'0 0.0
2016-May-02 18:32N 51°57' E 004°03'0 0.0
2016-May-02 17:32N 51°57' E 004°03'0 0.0
2016-May-02 16:31N 51°57' E 004°03'0 0.0
2016-May-02 15:31N 51°57' E 004°03'0 0.0
2016-May-02 14:33N 51°57' E 004°03'3 3.3
2016-May-02 13:34N 51°58' E 004°08'1110.6
2016-May-02 12:33N 51°54' E 004°24'2 1.5
2016-May-02 11:32N 51°54' E 004°26'1 1.2
2016-May-02 10:33N 51°53' E 004°25'0 0.2
2016-May-02 09:32N 51°53' E 004°25'0 0.0
2016-May-02 08:32N 51°53' E 004°25'0 0.0
2016-May-02 07:31N 51°53' E 004°25'0 0.0
2016-May-02 06:31N 51°53' E 004°25'0 0.0
2016-May-02 05:33N 51°53' E 004°25'0 0.0
2016-May-02 04:33N 51°53' E 004°25'0 0.0
2016-May-02 03:33N 51°53' E 004°25'0 0.0
2016-May-02 02:33N 51°53' E 004°25'6 6.3
2016-May-02 01:33N 51°55' E 004°15'10 9.5
2016-May-02 00:33N 51°60' E 004°02'1313.2
2016-May-01 23:34N 51°59' E 003°41'1616.1
2016-May-01 22:33N 51°53' E 003°16'1616.1
2016-May-01 21:33N 51°48' E 002°51'1615.9
2016-May-01 20:33N 51°40' E 002°30'1717.1
2016-May-01 19:34N 51°27' E 002°12'1616.0
2016-May-01 18:34N 51°13' E 001°60'1717.0
2016-May-01 17:33N 51°02' E 001°38'1616.2
2016-May-01 16:33N 50°48' E 001°24'5015.2
2016-May-01 13:14N 50°23' E 000°16'1115.8
2016-May-01 12:34N 50°20' W 000°00'1515.4
2016-May-01 11:34N 50°19' W 000°25'8514.1
2016-May-01 05:33N 50°09' W 002°36'1515.6
2016-May-01 04:33N 50°07' W 002°60'1615.8
2016-May-01 03:33N 50°05' W 003°24'1615.9
2016-May-01 02:33N 50°02' W 003°49'1615.9
2016-May-01 01:33N 50°00' W 004°13'1615.8
2016-May-01 00:33N 49°58' W 004°37'1615.8
2016-Apr-30 23:32N 49°56' W 005°02'1616.1
2016-Apr-30 22:33N 49°55' W 005°27'  
2016-Apr-27 21:20N 53°33' W 004°10'1215.1
2016-Apr-27 20:33N 53°33' W 003°51'1515.5
2016-Apr-27 19:33N 53°33' W 003°25'1211.6
2016-Apr-27 18:33N 53°30' W 003°06'4 4.1
2016-Apr-27 17:33N 53°27' W 003°01'1 0.8
2016-Apr-27 16:33N 53°28' W 003°02'0 0.0
2016-Apr-27 15:33N 53°28' W 003°02'0 0.0
2016-Apr-27 14:33N 53°28' W 003°02'0 0.0
2016-Apr-27 13:32N 53°28' W 003°02'0 0.0
2016-Apr-27 12:33N 53°28' W 003°02'0 0.0
2016-Apr-27 11:33N 53°28' W 003°02'0 0.0
2016-Apr-27 10:32N 53°28' W 003°02'0 0.0
2016-Apr-27 09:32N 53°28' W 003°02'0 0.0
2016-Apr-27 08:31N 53°28' W 003°02'0 0.0
2016-Apr-27 07:31N 53°28' W 003°02'0 0.0
2016-Apr-27 06:34N 53°28' W 003°02'0 0.0
2016-Apr-27 05:33N 53°28' W 003°02'0 0.0
2016-Apr-27 04:27N 53°28' W 003°02'0 0.0
2016-Apr-27 03:29N 53°28' W 003°02'0 0.0
2016-Apr-27 02:32N 53°28' W 003°02'0 0.0
2016-Apr-27 01:31N 53°28' W 003°02'0 0.0
2016-Apr-27 00:22N 53°28' W 003°02'0 0.0
2016-Apr-26 23:27N 53°28' W 003°02'0 0.0
2016-Apr-26 22:33N 53°28' W 003°02'0 0.0
2016-Apr-26 21:33N 53°28' W 003°02'0 0.0
2016-Apr-26 20:32N 53°28' W 003°02'0 0.0
2016-Apr-26 19:32N 53°28' W 003°02'0 0.0
2016-Apr-26 18:31N 53°28' W 003°02'0 0.0
2016-Apr-26 17:33N 53°28' W 003°02'0 0.0
2016-Apr-26 16:33N 53°28' W 003°02'0 0.0
2016-Apr-26 15:33N 53°28' W 003°02'0 0.0
2016-Apr-26 14:33N 53°28' W 003°02'0 0.0
2016-Apr-26 13:32N 53°28' W 003°02'0 0.0
2016-Apr-26 12:29N 53°28' W 003°02'0 0.0
2016-Apr-26 11:31N 53°28' W 003°02'0 0.0
2016-Apr-26 10:31N 53°28' W 003°02'0 0.0
2016-Apr-26 09:33N 53°28' W 003°02'0 0.0
2016-Apr-26 08:33N 53°28' W 003°02'0 0.0
2016-Apr-26 07:33N 53°28' W 003°02'0 0.0
2016-Apr-26 06:32N 53°28' W 003°02'0 0.2
2016-Apr-26 05:33N 53°28' W 003°02'1 0.8
2016-Apr-26 04:34N 53°27' W 003°01'8 7.6
2016-Apr-26 03:33N 53°32' W 003°11'1211.7
2016-Apr-26 02:34N 53°31' W 003°31'1010.1
2016-Apr-26 01:33N 53°31' W 003°48'9 9.3
2016-Apr-26 00:33N 53°39' W 003°57'  
Track history (hours):
 
Tides and Currents Weather Stations Pressure Air Temp Water Temp Dewpoint Dewpoint Depression Visibility Wind Speed Wind Dir Waves Ship Positions

Anne Sibum

Last reported at 2016-May-04 18:33 UTC. Time now 2016-May-04 19:18 UTC.
Position N 53°21' E 007°12'.

Length 151 m; draft 5.8 m.

Type: Cargo ship. MMSI: 209322000.

Date/timePositionNaut miles runAvg speedWind from/ knotsBaromVisibWave heightAir tempDewpointWater temp
2016-May-04 18:33N 53°21' E 007°12'0 0.0
2016-May-04 17:33N 53°21' E 007°12'0 0.0
2016-May-04 16:33N 53°21' E 007°12'0 0.2
2016-May-04 15:32N 53°21' E 007°12'1 1.3
2016-May-04 14:33N 53°20' E 007°10'3 3.2
2016-May-04 13:33N 53°20' E 007°05'10 9.6
2016-May-04 12:33N 53°27' E 006°54'1211.9
2016-May-04 11:33N 53°34' E 006°39'1212.1
2016-May-04 10:33N 53°38' E 006°19'9 9.1
2016-May-04 09:33N 53°39' E 006°04'6 6.4
2016-May-04 08:33N 53°38' E 005°53'7 7.2
2016-May-04 07:32N 53°36' E 005°41'1010.2
2016-May-04 06:34N 53°33' E 005°25'1110.4
2016-May-04 05:32N 53°29' E 005°08'23 9.7
2016-May-04 03:09N 53°16' E 004°37'610.7
2016-May-04 02:33N 53°10' E 004°32'1111.3
2016-May-04 01:33N 53°00' E 004°23'1111.2
2016-May-04 00:33N 52°50' E 004°14'1111.2
2016-May-03 23:33N 52°41' E 004°04'1111.1
2016-May-03 22:33N 52°31' E 003°55'1212.2
2016-May-03 21:34N 52°19' E 003°52'1212.3
2016-May-03 20:34N 52°07' E 003°55'10 9.8
2016-May-03 19:33N 51°59' E 004°04'2 1.7
2016-May-03 18:33N 51°59' E 004°01'0 0.0
2016-May-03 17:30N 51°59' E 004°01'0 0.2
2016-May-03 16:33N 51°59' E 004°02'2 1.8
2016-May-03 15:33N 51°57' E 004°03'0 0.0
2016-May-03 14:31N 51°57' E 004°03'0 0.0
2016-May-03 13:28N 51°57' E 004°03'0 0.0
2016-May-03 12:33N 51°57' E 004°03'0 0.0
2016-May-03 11:30N 51°57' E 004°03'1 0.9
2016-May-03 10:34N 51°57' E 004°04'1 0.9
2016-May-03 09:33N 51°58' E 004°03'0 0.0
2016-May-03 08:33N 51°58' E 004°03'0 0.0
2016-May-03 07:32N 51°58' E 004°03'0 0.0
2016-May-03 06:32N 51°58' E 004°03'0 0.0
2016-May-03 05:31N 51°58' E 004°03'0 0.0
2016-May-03 04:31N 51°58' E 004°03'0 0.0
2016-May-03 03:31N 51°58' E 004°03'0 0.0
2016-May-03 02:33N 51°58' E 004°03'0 0.0
2016-May-03 01:33N 51°58' E 004°03'0 0.0
2016-May-03 00:32N 51°58' E 004°03'0 0.0
2016-May-02 23:32N 51°58' E 004°03'0 0.0
2016-May-02 22:31N 51°58' E 004°03'0 0.0
2016-May-02 21:31N 51°58' E 004°03'0 0.0
2016-May-02 20:31N 51°58' E 004°03'0 0.4
2016-May-02 19:33N 51°57' E 004°03'0 0.0
2016-May-02 18:32N 51°57' E 004°03'0 0.0
2016-May-02 17:32N 51°57' E 004°03'0 0.0
2016-May-02 16:31N 51°57' E 004°03'0 0.0
2016-May-02 15:31N 51°57' E 004°03'0 0.0
2016-May-02 14:33N 51°57' E 004°03'3 3.3
2016-May-02 13:34N 51°58' E 004°08'1110.6
2016-May-02 12:33N 51°54' E 004°24'2 1.5
2016-May-02 11:32N 51°54' E 004°26'1 1.2
2016-May-02 10:33N 51°53' E 004°25'0 0.2
2016-May-02 09:32N 51°53' E 004°25'0 0.0
2016-May-02 08:32N 51°53' E 004°25'0 0.0
2016-May-02 07:31N 51°53' E 004°25'0 0.0
2016-May-02 06:31N 51°53' E 004°25'0 0.0
2016-May-02 05:33N 51°53' E 004°25'0 0.0
2016-May-02 04:33N 51°53' E 004°25'0 0.0
2016-May-02 03:33N 51°53' E 004°25'0 0.0
2016-May-02 02:33N 51°53' E 004°25'6 6.3
2016-May-02 01:33N 51°55' E 004°15'10 9.5
2016-May-02 00:33N 51°60' E 004°02'1313.2
2016-May-01 23:34N 51°59' E 003°41'1616.1
2016-May-01 22:33N 51°53' E 003°16'1616.1
2016-May-01 21:33N 51°48' E 002°51'1615.9
2016-May-01 20:33N 51°40' E 002°30'1717.1
2016-May-01 19:34N 51°27' E 002°12'1616.0
2016-May-01 18:34N 51°13' E 001°60'1717.0
2016-May-01 17:33N 51°02' E 001°38'1616.2
2016-May-01 16:33N 50°48' E 001°24'5015.2
2016-May-01 13:14N 50°23' E 000°16'1115.8
2016-May-01 12:34N 50°20' W 000°00'1515.4
2016-May-01 11:34N 50°19' W 000°25'8514.1
2016-May-01 05:33N 50°09' W 002°36'1515.6
2016-May-01 04:33N 50°07' W 002°60'1615.8
2016-May-01 03:33N 50°05' W 003°24'1615.9
2016-May-01 02:33N 50°02' W 003°49'1615.9
2016-May-01 01:33N 50°00' W 004°13'1615.8
2016-May-01 00:33N 49°58' W 004°37'1615.8
2016-Apr-30 23:32N 49°56' W 005°02'1616.1
2016-Apr-30 22:33N 49°55' W 005°27'  
2016-Apr-27 21:20N 53°33' W 004°10'1215.1
2016-Apr-27 20:33N 53°33' W 003°51'1515.5
2016-Apr-27 19:33N 53°33' W 003°25'1211.6
2016-Apr-27 18:33N 53°30' W 003°06'4 4.1
2016-Apr-27 17:33N 53°27' W 003°01'1 0.8
2016-Apr-27 16:33N 53°28' W 003°02'0 0.0
2016-Apr-27 15:33N 53°28' W 003°02'0 0.0
2016-Apr-27 14:33N 53°28' W 003°02'0 0.0
2016-Apr-27 13:32N 53°28' W 003°02'0 0.0
2016-Apr-27 12:33N 53°28' W 003°02'0 0.0
2016-Apr-27 11:33N 53°28' W 003°02'0 0.0
2016-Apr-27 10:32N 53°28' W 003°02'0 0.0
2016-Apr-27 09:32N 53°28' W 003°02'0 0.0
2016-Apr-27 08:31N 53°28' W 003°02'0 0.0
2016-Apr-27 07:31N 53°28' W 003°02'0 0.0
2016-Apr-27 06:34N 53°28' W 003°02'0 0.0
2016-Apr-27 05:33N 53°28' W 003°02'0 0.0
2016-Apr-27 04:27N 53°28' W 003°02'0 0.0
2016-Apr-27 03:29N 53°28' W 003°02'0 0.0
2016-Apr-27 02:32N 53°28' W 003°02'0 0.0
2016-Apr-27 01:31N 53°28' W 003°02'0 0.0
2016-Apr-27 00:22N 53°28' W 003°02'0 0.0
2016-Apr-26 23:27N 53°28' W 003°02'0 0.0
2016-Apr-26 22:33N 53°28' W 003°02'0 0.0
2016-Apr-26 21:33N 53°28' W 003°02'0 0.0
2016-Apr-26 20:32N 53°28' W 003°02'0 0.0
2016-Apr-26 19:32N 53°28' W 003°02'0 0.0
2016-Apr-26 18:31N 53°28' W 003°02'0 0.0
2016-Apr-26 17:33N 53°28' W 003°02'0 0.0
2016-Apr-26 16:33N 53°28' W 003°02'0 0.0
2016-Apr-26 15:33N 53°28' W 003°02'0 0.0
2016-Apr-26 14:33N 53°28' W 003°02'0 0.0
2016-Apr-26 13:32N 53°28' W 003°02'0 0.0
2016-Apr-26 12:29N 53°28' W 003°02'0 0.0
2016-Apr-26 11:31N 53°28' W 003°02'0 0.0
2016-Apr-26 10:31N 53°28' W 003°02'0 0.0
2016-Apr-26 09:33N 53°28' W 003°02'0 0.0
2016-Apr-26 08:33N 53°28' W 003°02'0 0.0
2016-Apr-26 07:33N 53°28' W 003°02'0 0.0
2016-Apr-26 06:32N 53°28' W 003°02'0 0.2
2016-Apr-26 05:33N 53°28' W 003°02'1 0.8
2016-Apr-26 04:34N 53°27' W 003°01'8 7.6
2016-Apr-26 03:33N 53°32' W 003°11'1211.7
2016-Apr-26 02:34N 53°31' W 003°31'1010.1
2016-Apr-26 01:33N 53°31' W 003°48'9 9.3
2016-Apr-26 00:33N 53°39' W 003°57'  

Dump ship's entire track history